Redstart — WDJ2206 — position and weather

sailwx.info

Track history (hours):
 
Tides and Currents Weather Stations Pressure Air Temp Water Temp Dewpoint Dewpoint Depression Visibility Wind Speed Wind Dir Waves Ship Positions

Redstart

Owner: Danforth, Hillyard R, Marblehead, MA. More information available from US FCC via Universal Licensing System and Coast Guard Vessel Documentation Center.

Last reported at 2017-Sep-12 16:28 UTC. Time now 2017-Sep-20 02:12 UTC.
Position N 43°46' W 069°56'.

Length 14 m.

Type: Sailing vessel. MMSI: 367756230.

Date/timePositionNaut miles runAvg speedWind from/ knotsBaromVisibWave heightAir tempDewpointWater temp
2017-Sep-12 16:28N 43°46' W 069°56'4 7.5
2017-Sep-12 16:00N 43°43' W 069°57'4 7.2
2017-Sep-12 15:30N 43°41' W 070°01'3 6.8
2017-Sep-12 15:00N 43°38' W 070°05'3 6.9
2017-Sep-12 14:30N 43°36' W 070°08'3 6.8
2017-Sep-12 14:00N 43°33' W 070°11'4 6.8
2017-Sep-12 13:28N 43°31' W 070°15'3 7.1
2017-Sep-12 13:00N 43°29' W 070°18'3 5.3
2017-Sep-12 12:28N 43°27' W 070°21'0 0.0
2017-Sep-12 11:58N 43°27' W 070°21'0 0.0
2017-Sep-11 22:34N 43°27' W 070°21'0 0.0
2017-Sep-11 22:28N 43°27' W 070°21'0 0.0
2017-Sep-11 21:58N 43°27' W 070°21'0 0.0
2017-Sep-11 21:30N 43°27' W 070°21'34 6.5
2017-Sep-11 16:13N 42°53' W 070°30'2 6.9
2017-Sep-11 15:59N 42°52' W 070°31'3 6.5
2017-Sep-11 15:30N 42°49' W 070°32'3 6.7
2017-Sep-11 15:00N 42°45' W 070°32'3 6.5
2017-Sep-11 14:30N 42°42' W 070°32'4 7.0
2017-Sep-11 13:59N 42°39' W 070°33'4 7.7
2017-Sep-11 13:29N 42°36' W 070°37'4 7.6
2017-Sep-11 13:00N 42°34' W 070°41'4 7.8
2017-Sep-11 12:30N 42°33' W 070°46'  
2017-Sep-08 20:47N 42°30' W 070°50'0 0.0
2017-Sep-08 20:29N 42°30' W 070°50'0 0.0
2017-Sep-08 19:59N 42°30' W 070°50'0 0.0
2017-Sep-08 19:29N 42°30' W 070°50'0 0.0
2017-Sep-07 21:14N 42°30' W 070°50'0 0.0
2017-Sep-07 20:59N 42°30' W 070°50'0 0.0
2017-Sep-07 20:29N 42°30' W 070°50'  
Track history (hours):
 
Tides and Currents Weather Stations Pressure Air Temp Water Temp Dewpoint Dewpoint Depression Visibility Wind Speed Wind Dir Waves Ship Positions

Redstart

Owner: Danforth, Hillyard R, Marblehead, MA. More information available from US FCC via Universal Licensing System and Coast Guard Vessel Documentation Center.

Last reported at 2017-Sep-12 16:28 UTC. Time now 2017-Sep-20 02:12 UTC.
Position N 43°46' W 069°56'.

Length 14 m.

Type: Sailing vessel. MMSI: 367756230.

Date/timePositionNaut miles runAvg speedWind from/ knotsBaromVisibWave heightAir tempDewpointWater temp
2017-Sep-12 16:28N 43°46' W 069°56'4 7.5
2017-Sep-12 16:00N 43°43' W 069°57'4 7.2
2017-Sep-12 15:30N 43°41' W 070°01'3 6.8
2017-Sep-12 15:00N 43°38' W 070°05'3 6.9
2017-Sep-12 14:30N 43°36' W 070°08'3 6.8
2017-Sep-12 14:00N 43°33' W 070°11'4 6.8
2017-Sep-12 13:28N 43°31' W 070°15'3 7.1
2017-Sep-12 13:00N 43°29' W 070°18'3 5.3
2017-Sep-12 12:28N 43°27' W 070°21'0 0.0
2017-Sep-12 11:58N 43°27' W 070°21'0 0.0
2017-Sep-11 22:34N 43°27' W 070°21'0 0.0
2017-Sep-11 22:28N 43°27' W 070°21'0 0.0
2017-Sep-11 21:58N 43°27' W 070°21'0 0.0
2017-Sep-11 21:30N 43°27' W 070°21'34 6.5
2017-Sep-11 16:13N 42°53' W 070°30'2 6.9
2017-Sep-11 15:59N 42°52' W 070°31'3 6.5
2017-Sep-11 15:30N 42°49' W 070°32'3 6.7
2017-Sep-11 15:00N 42°45' W 070°32'3 6.5
2017-Sep-11 14:30N 42°42' W 070°32'4 7.0
2017-Sep-11 13:59N 42°39' W 070°33'4 7.7
2017-Sep-11 13:29N 42°36' W 070°37'4 7.6
2017-Sep-11 13:00N 42°34' W 070°41'4 7.8
2017-Sep-11 12:30N 42°33' W 070°46'  
2017-Sep-08 20:47N 42°30' W 070°50'0 0.0
2017-Sep-08 20:29N 42°30' W 070°50'0 0.0
2017-Sep-08 19:59N 42°30' W 070°50'0 0.0
2017-Sep-08 19:29N 42°30' W 070°50'0 0.0
2017-Sep-07 21:14N 42°30' W 070°50'0 0.0
2017-Sep-07 20:59N 42°30' W 070°50'0 0.0
2017-Sep-07 20:29N 42°30' W 070°50'  

Dump ship's entire track history